Terminal Aerodrome Forecast
Issued by NWS

Home | Current Version | Previous Version | Text Only | Print | Product List | Glossary On
Versions: 1 2 3 4 5 6 7 8 9 10 11 12 13 14
000
FTUS45 KRIW 031300 AAA
TAFCOD
TAF AMD
KCOD 031353Z 0314/0412 36012G18KT 5SM -SN BLSN SCT008 OVC015
      TEMPO 0314/0316 2SM -SN
     FM031900 01010KT 6SM -SN SCT025 BKN050
     FM040200 19006KT P6SM -SN BKN050
      AMD LTD TO CLD VIS AND WIND=

USA.gov is the U.S. government's official web portal to all federal, state and local government web resources and services.